sensor_id;sensor_type;location;lat;lon;timestamp;temperature;humidity
70928;SHT31;58587;53.034;18.576;2022-07-06T08:05:26;20.98;54.55
70928;SHT31;58587;53.034;18.576;2022-07-06T08:07:51;21.12;55.13
70928;SHT31;58587;53.034;18.576;2022-07-06T08:10:17;21.29;54.62
70928;SHT31;58587;53.034;18.576;2022-07-06T08:12:42;21.32;53.13
70928;SHT31;58587;53.034;18.576;2022-07-06T08:15:08;21.40;53.24
70928;SHT31;58587;53.034;18.576;2022-07-06T08:17:34;21.35;52.66
70928;SHT31;58587;53.034;18.576;2022-07-06T08:19:59;21.29;53.25
70928;SHT31;58587;53.034;18.576;2022-07-06T08:22:25;21.38;53.03
70928;SHT31;58587;53.034;18.576;2022-07-06T08:24:52;21.42;52.91
70928;SHT31;58587;53.034;18.576;2022-07-06T08:27:17;21.38;53.19
70928;SHT31;58587;53.034;18.576;2022-07-06T08:29:43;21.35;54.17
70928;SHT31;58587;53.034;18.576;2022-07-06T08:32:08;21.40;54.32
70928;SHT31;58587;53.034;18.576;2022-07-06T08:34:34;21.36;53.87
70928;SHT31;58587;53.034;18.576;2022-07-06T08:36:59;21.32;53.52
70928;SHT31;58587;53.034;18.576;2022-07-06T08:39:25;21.39;54.99
70928;SHT31;58587;53.034;18.576;2022-07-06T08:41:50;21.47;54.35
70928;SHT31;58587;53.034;18.576;2022-07-06T08:44:17;21.54;52.56
70928;SHT31;58587;53.034;18.576;2022-07-06T08:46:44;21.47;51.77
70928;SHT31;58587;53.034;18.576;2022-07-06T08:49:15;21.49;52.02
70928;SHT31;58587;53.034;18.576;2022-07-06T08:51:41;21.47;51.87
70928;SHT31;58587;53.034;18.576;2022-07-06T08:54:07;21.45;52.27
70928;SHT31;58587;53.034;18.576;2022-07-06T08:56:33;21.45;50.47
70928;SHT31;58587;53.034;18.576;2022-07-06T08:58:59;21.56;53.14
70928;SHT31;58587;53.034;18.576;2022-07-06T09:01:25;21.69;50.73
70928;SHT31;58587;53.034;18.576;2022-07-06T09:03:51;21.63;48.08
70928;SHT31;58587;53.034;18.576;2022-07-06T09:06:26;21.54;48.63
70928;SHT31;58587;53.034;18.576;2022-07-06T09:08:56;21.50;49.23
70928;SHT31;58587;53.034;18.576;2022-07-06T09:11:22;21.49;50.59
70928;SHT31;58587;53.034;18.576;2022-07-06T09:13:50;21.54;49.46
70928;SHT31;58587;53.034;18.576;2022-07-06T09:16:16;21.64;49.15
70928;SHT31;58587;53.034;18.576;2022-07-06T09:18:46;21.71;50.13
70928;SHT31;58587;53.034;18.576;2022-07-06T09:21:22;21.66;49.00
70928;SHT31;58587;53.034;18.576;2022-07-06T09:23:53;21.79;49.56
70928;SHT31;58587;53.034;18.576;2022-07-06T09:26:19;21.79;48.19
70928;SHT31;58587;53.034;18.576;2022-07-06T09:28:45;21.81;47.19
70928;SHT31;58587;53.034;18.576;2022-07-06T09:31:11;21.80;48.29
70928;SHT31;58587;53.034;18.576;2022-07-06T09:33:37;21.71;47.55
70928;SHT31;58587;53.034;18.576;2022-07-06T09:36:03;21.67;48.19
70928;SHT31;58587;53.034;18.576;2022-07-06T09:38:30;21.71;47.57
70928;SHT31;58587;53.034;18.576;2022-07-06T09:40:56;21.91;47.85
70928;SHT31;58587;53.034;18.576;2022-07-06T09:43:22;21.98;49.26
70928;SHT31;58587;53.034;18.576;2022-07-06T09:45:52;21.94;47.82
70928;SHT31;58587;53.034;18.576;2022-07-06T09:48:24;22.07;47.56
70928;SHT31;58587;53.034;18.576;2022-07-06T09:51:01;22.07;47.91
70928;SHT31;58587;53.034;18.576;2022-07-06T09:53:35;22.17;46.42
70928;SHT31;58587;53.034;18.576;2022-07-06T09:56:00;22.03;47.41
70928;SHT31;58587;53.034;18.576;2022-07-06T09:58:27;22.05;47.19
70928;SHT31;58587;53.034;18.576;2022-07-06T10:00:53;22.27;47.77
70928;SHT31;58587;53.034;18.576;2022-07-06T10:03:18;22.37;46.78
70928;SHT31;58587;53.034;18.576;2022-07-06T10:05:46;22.55;46.86
70928;SHT31;58587;53.034;18.576;2022-07-06T10:08:13;22.58;46.22
70928;SHT31;58587;53.034;18.576;2022-07-06T10:10:40;22.52;46.12
70928;SHT31;58587;53.034;18.576;2022-07-06T10:13:07;22.55;47.50
70928;SHT31;58587;53.034;18.576;2022-07-06T10:15:34;22.44;46.02
70928;SHT31;58587;53.034;18.576;2022-07-06T10:18:03;22.30;46.10
70928;SHT31;58587;53.034;18.576;2022-07-06T10:20:31;22.10;47.00
70928;SHT31;58587;53.034;18.576;2022-07-06T10:22:58;21.96;46.17
70928;SHT31;58587;53.034;18.576;2022-07-06T10:25:25;21.91;47.53
70928;SHT31;58587;53.034;18.576;2022-07-06T10:27:51;22.01;46.86
70928;SHT31;58587;53.034;18.576;2022-07-06T10:30:17;22.14;47.39
70928;SHT31;58587;53.034;18.576;2022-07-06T10:32:44;22.14;45.89
70928;SHT31;58587;53.034;18.576;2022-07-06T10:35:11;22.27;46.68
70928;SHT31;58587;53.034;18.576;2022-07-06T10:37:36;22.58;46.29
70928;SHT31;58587;53.034;18.576;2022-07-06T10:40:02;22.78;49.34
70928;SHT31;58587;53.034;18.576;2022-07-06T10:42:48;22.95;46.40
70928;SHT31;58587;53.034;18.576;2022-07-06T10:50:49;22.45;46.09
70928;SHT31;58587;53.034;18.576;2022-07-06T10:53:26;22.30;47.65
70928;SHT31;58587;53.034;18.576;2022-07-06T10:55:53;22.08;47.37
70928;SHT31;58587;53.034;18.576;2022-07-06T10:58:48;22.00;47.29
70928;SHT31;58587;53.034;18.576;2022-07-06T11:01:19;21.76;51.56
70928;SHT31;58587;53.034;18.576;2022-07-06T11:03:46;21.38;54.41
70928;SHT31;58587;53.034;18.576;2022-07-06T11:06:19;20.96;56.43
70928;SHT31;58587;53.034;18.576;2022-07-06T11:08:59;20.68;57.87
70928;SHT31;58587;53.034;18.576;2022-07-06T11:14:07;20.54;59.20
70928;SHT31;58587;53.034;18.576;2022-07-06T11:19:26;20.21;60.82
70928;SHT31;58587;53.034;18.576;2022-07-06T11:21:56;20.13;60.78
70928;SHT31;58587;53.034;18.576;2022-07-06T11:24:35;20.16;60.86
70928;SHT31;58587;53.034;18.576;2022-07-06T11:27:04;20.16;60.86
70928;SHT31;58587;53.034;18.576;2022-07-06T11:29:32;20.12;60.57
70928;SHT31;58587;53.034;18.576;2022-07-06T11:32:00;20.13;61.35
70928;SHT31;58587;53.034;18.576;2022-07-06T11:34:34;20.17;60.85
70928;SHT31;58587;53.034;18.576;2022-07-06T11:37:09;20.36;60.84
70928;SHT31;58587;53.034;18.576;2022-07-06T11:39:48;20.38;60.69
70928;SHT31;58587;53.034;18.576;2022-07-06T11:42:16;20.37;60.19
70928;SHT31;58587;53.034;18.576;2022-07-06T11:44:43;20.48;60.32
70928;SHT31;58587;53.034;18.576;2022-07-06T11:47:12;20.54;59.60
70928;SHT31;58587;53.034;18.576;2022-07-06T11:49:41;20.68;59.16
70928;SHT31;58587;53.034;18.576;2022-07-06T11:52:12;20.87;59.75
70928;SHT31;58587;53.034;18.576;2022-07-06T11:54:39;21.08;59.63
70928;SHT31;58587;53.034;18.576;2022-07-06T11:57:08;21.36;57.98
70928;SHT31;58587;53.034;18.576;2022-07-06T11:59:36;21.57;58.67
70928;SHT31;58587;53.034;18.576;2022-07-06T12:02:12;21.94;56.81
70928;SHT31;58587;53.034;18.576;2022-07-06T12:04:43;21.98;56.17
70928;SHT31;58587;53.034;18.576;2022-07-06T12:07:14;22.04;57.84
70928;SHT31;58587;53.034;18.576;2022-07-06T12:09:42;22.11;57.02
70928;SHT31;58587;53.034;18.576;2022-07-06T12:12:09;22.18;57.03
70928;SHT31;58587;53.034;18.576;2022-07-06T12:14:36;22.20;56.35
70928;SHT31;58587;53.034;18.576;2022-07-06T12:17:06;22.48;57.10
70928;SHT31;58587;53.034;18.576;2022-07-06T12:19:33;22.65;57.07
70928;SHT31;58587;53.034;18.576;2022-07-06T12:21:59;22.58;56.78
70928;SHT31;58587;53.034;18.576;2022-07-06T12:24:27;22.52;55.02
70928;SHT31;58587;53.034;18.576;2022-07-06T12:26:54;22.40;54.29
70928;SHT31;58587;53.034;18.576;2022-07-06T12:29:20;22.88;54.69
70928;SHT31;58587;53.034;18.576;2022-07-06T12:36:49;22.75;51.41
70928;SHT31;58587;53.034;18.576;2022-07-06T12:39:18;22.64;53.08
70928;SHT31;58587;53.034;18.576;2022-07-06T12:44:17;22.28;52.99
70928;SHT31;58587;53.034;18.576;2022-07-06T12:46:43;21.91;51.47
70928;SHT31;58587;53.034;18.576;2022-07-06T12:49:21;21.97;52.14
70928;SHT31;58587;53.034;18.576;2022-07-06T12:54:50;21.47;48.37
70928;SHT31;58587;53.034;18.576;2022-07-06T12:57:18;21.29;47.66
70928;SHT31;58587;53.034;18.576;2022-07-06T12:59:46;21.20;48.67
70928;SHT31;58587;53.034;18.576;2022-07-06T13:02:26;21.19;49.08
70928;SHT31;58587;53.034;18.576;2022-07-06T13:07:28;21.03;48.34
70928;SHT31;58587;53.034;18.576;2022-07-06T13:09:54;20.92;48.42
70928;SHT31;58587;53.034;18.576;2022-07-06T13:12:21;20.89;48.42
70928;SHT31;58587;53.034;18.576;2022-07-06T13:14:47;20.84;48.30
70928;SHT31;58587;53.034;18.576;2022-07-06T13:17:13;20.79;49.06
70928;SHT31;58587;53.034;18.576;2022-07-06T13:19:38;20.77;50.36
70928;SHT31;58587;53.034;18.576;2022-07-06T13:22:04;20.67;50.40
70928;SHT31;58587;53.034;18.576;2022-07-06T13:24:30;20.64;51.01
70928;SHT31;58587;53.034;18.576;2022-07-06T13:26:56;20.57;50.96
70928;SHT31;58587;53.034;18.576;2022-07-06T13:29:22;20.57;51.11
70928;SHT31;58587;53.034;18.576;2022-07-06T13:31:49;20.61;52.18
70928;SHT31;58587;53.034;18.576;2022-07-06T13:34:14;20.61;51.13
70928;SHT31;58587;53.034;18.576;2022-07-06T13:36:40;20.55;49.73
70928;SHT31;58587;53.034;18.576;2022-07-06T13:39:06;20.55;50.82
70928;SHT31;58587;53.034;18.576;2022-07-06T13:41:33;20.57;50.83
70928;SHT31;58587;53.034;18.576;2022-07-06T13:43:58;20.57;49.26
70928;SHT31;58587;53.034;18.576;2022-07-06T13:46:26;20.69;50.22
70928;SHT31;58587;53.034;18.576;2022-07-06T13:48:52;20.68;49.04
70928;SHT31;58587;53.034;18.576;2022-07-06T13:51:17;20.79;48.71
70928;SHT31;58587;53.034;18.576;2022-07-06T13:53:43;20.94;48.66
70928;SHT31;58587;53.034;18.576;2022-07-06T13:56:08;21.05;47.77
70928;SHT31;58587;53.034;18.576;2022-07-06T13:58:34;21.40;48.34
70928;SHT31;58587;53.034;18.576;2022-07-06T14:01:00;21.62;46.04
70928;SHT31;58587;53.034;18.576;2022-07-06T14:03:25;21.62;47.00
70928;SHT31;58587;53.034;18.576;2022-07-06T14:05:58;21.53;46.40
70928;SHT31;58587;53.034;18.576;2022-07-06T14:08:25;21.77;45.89
70928;SHT31;58587;53.034;18.576;2022-07-06T14:10:51;22.45;44.89
70928;SHT31;58587;53.034;18.576;2022-07-06T14:13:22;23.12;45.12
70928;SHT31;58587;53.034;18.576;2022-07-06T14:15:48;22.98;43.48
70928;SHT31;58587;53.034;18.576;2022-07-06T14:18:14;23.78;42.97
70928;SHT31;58587;53.034;18.576;2022-07-06T14:20:42;23.77;42.32
70928;SHT31;58587;53.034;18.576;2022-07-06T14:23:08;23.75;42.88
70928;SHT31;58587;53.034;18.576;2022-07-06T14:25:33;23.73;38.76
70928;SHT31;58587;53.034;18.576;2022-07-06T14:27:59;24.66;38.29
70928;SHT31;58587;53.034;18.576;2022-07-06T14:30:25;25.30;36.72
70928;SHT31;58587;53.034;18.576;2022-07-06T14:32:50;26.02;34.42
70928;SHT31;58587;53.034;18.576;2022-07-06T14:35:16;25.44;33.27
70928;SHT31;58587;53.034;18.576;2022-07-06T14:37:41;25.41;35.96
70928;SHT31;58587;53.034;18.576;2022-07-06T14:40:07;25.50;37.36
70928;SHT31;58587;53.034;18.576;2022-07-06T14:42:33;25.36;35.98
70928;SHT31;58587;53.034;18.576;2022-07-06T14:44:58;24.99;37.92
70928;SHT31;58587;53.034;18.576;2022-07-06T14:47:24;24.71;37.02
70928;SHT31;58587;53.034;18.576;2022-07-06T14:49:49;25.68;35.31
70928;SHT31;58587;53.034;18.576;2022-07-06T14:52:16;26.48;32.93
70928;SHT31;58587;53.034;18.576;2022-07-06T14:54:44;27.06;32.26
70928;SHT31;58587;53.034;18.576;2022-07-06T14:57:10;27.68;31.97
70928;SHT31;58587;53.034;18.576;2022-07-06T14:59:35;28.06;30.14
70928;SHT31;58587;53.034;18.576;2022-07-06T15:02:04;28.90;31.10
70928;SHT31;58587;53.034;18.576;2022-07-06T15:04:29;29.31;28.55
70928;SHT31;58587;53.034;18.576;2022-07-06T15:06:57;29.48;28.39
70928;SHT31;58587;53.034;18.576;2022-07-06T15:09:23;29.10;28.37
70928;SHT31;58587;53.034;18.576;2022-07-06T15:11:48;28.73;29.14
70928;SHT31;58587;53.034;18.576;2022-07-06T15:14:14;28.04;30.77
70928;SHT31;58587;53.034;18.576;2022-07-06T15:16:41;27.50;32.13
70928;SHT31;58587;53.034;18.576;2022-07-06T15:19:09;26.78;33.97
70928;SHT31;58587;53.034;18.576;2022-07-06T15:21:34;26.42;34.77
70928;SHT31;58587;53.034;18.576;2022-07-06T15:24:00;25.61;35.83
70928;SHT31;58587;53.034;18.576;2022-07-06T15:26:25;25.99;35.85
70928;SHT31;58587;53.034;18.576;2022-07-06T15:28:50;26.78;34.20
70928;SHT31;58587;53.034;18.576;2022-07-06T15:31:16;27.43;34.01
70928;SHT31;58587;53.034;18.576;2022-07-06T15:33:42;27.35;33.94
70928;SHT31;58587;53.034;18.576;2022-07-06T15:36:10;26.72;35.84
70928;SHT31;58587;53.034;18.576;2022-07-06T15:38:39;26.87;35.55
70928;SHT31;58587;53.034;18.576;2022-07-06T15:41:05;26.82;35.67
70928;SHT31;58587;53.034;18.576;2022-07-06T15:43:30;26.38;35.95
70928;SHT31;58587;53.034;18.576;2022-07-06T15:46:03;26.53;35.67
70928;SHT31;58587;53.034;18.576;2022-07-06T15:48:32;25.87;36.90
70928;SHT31;58587;53.034;18.576;2022-07-06T15:50:59;25.07;37.91
70928;SHT31;58587;53.034;18.576;2022-07-06T15:53:24;24.75;38.68
70928;SHT31;58587;53.034;18.576;2022-07-06T15:55:50;25.56;37.72
70928;SHT31;58587;53.034;18.576;2022-07-06T15:58:19;24.89;39.14
70928;SHT31;58587;53.034;18.576;2022-07-06T16:00:45;24.65;38.87
70928;SHT31;58587;53.034;18.576;2022-07-06T16:03:19;24.41;39.76
70928;SHT31;58587;53.034;18.576;2022-07-06T16:06:02;24.02;39.57
70928;SHT31;58587;53.034;18.576;2022-07-06T16:08:33;23.45;41.30
70928;SHT31;58587;53.034;18.576;2022-07-06T16:10:59;23.06;41.52
70928;SHT31;58587;53.034;18.576;2022-07-06T16:13:24;22.91;41.99
70928;SHT31;58587;53.034;18.576;2022-07-06T16:15:50;22.66;41.67
70928;SHT31;58587;53.034;18.576;2022-07-06T16:18:28;22.28;42.46
70928;SHT31;58587;53.034;18.576;2022-07-06T16:20:59;21.81;42.85
70928;SHT31;58587;53.034;18.576;2022-07-06T16:23:29;21.90;42.65
70928;SHT31;58587;53.034;18.576;2022-07-06T16:25:55;22.11;42.27
70928;SHT31;58587;53.034;18.576;2022-07-06T16:28:23;22.38;42.42
70928;SHT31;58587;53.034;18.576;2022-07-06T16:30:49;22.22;41.87
70928;SHT31;58587;53.034;18.576;2022-07-06T16:33:15;21.96;41.45
70928;SHT31;58587;53.034;18.576;2022-07-06T16:35:41;22.03;41.47
70928;SHT31;58587;53.034;18.576;2022-07-06T16:38:08;21.97;41.43
70928;SHT31;58587;53.034;18.576;2022-07-06T16:40:33;21.83;42.64
70928;SHT31;58587;53.034;18.576;2022-07-06T16:42:59;21.91;43.07
70928;SHT31;58587;53.034;18.576;2022-07-06T16:45:24;21.84;43.10
70928;SHT31;58587;53.034;18.576;2022-07-06T16:47:50;21.50;43.77
70928;SHT31;58587;53.034;18.576;2022-07-06T16:50:15;21.57;44.73
70928;SHT31;58587;53.034;18.576;2022-07-06T16:52:44;21.63;44.17
70928;SHT31;58587;53.034;18.576;2022-07-06T16:55:09;21.63;44.84
70928;SHT31;58587;53.034;18.576;2022-07-06T16:57:36;21.36;45.38
70928;SHT31;58587;53.034;18.576;2022-07-06T17:00:02;21.35;46.02
70928;SHT31;58587;53.034;18.576;2022-07-06T17:02:37;20.99;46.13
70928;SHT31;58587;53.034;18.576;2022-07-06T17:05:03;20.84;47.03
70928;SHT31;58587;53.034;18.576;2022-07-06T17:07:28;20.98;47.01
70928;SHT31;58587;53.034;18.576;2022-07-06T17:09:56;20.92;46.67
70928;SHT31;58587;53.034;18.576;2022-07-06T17:12:28;20.87;47.09
70928;SHT31;58587;53.034;18.576;2022-07-06T17:15:01;20.81;47.11
70928;SHT31;58587;53.034;18.576;2022-07-06T17:17:29;20.65;46.45
70928;SHT31;58587;53.034;18.576;2022-07-06T17:19:55;20.77;46.42
70928;SHT31;58587;53.034;18.576;2022-07-06T17:22:20;20.61;46.23
70928;SHT31;58587;53.034;18.576;2022-07-06T17:24:47;20.44;46.71
70928;SHT31;58587;53.034;18.576;2022-07-06T17:27:13;20.49;46.65
70928;SHT31;58587;53.034;18.576;2022-07-06T17:29:39;20.38;46.48
70928;SHT31;58587;53.034;18.576;2022-07-06T17:32:06;20.16;46.76
70928;SHT31;58587;53.034;18.576;2022-07-06T17:34:31;19.93;47.27
70928;SHT31;58587;53.034;18.576;2022-07-06T17:37:00;19.69;47.84
70928;SHT31;58587;53.034;18.576;2022-07-06T17:39:26;19.80;48.26
70928;SHT31;58587;53.034;18.576;2022-07-06T17:41:51;19.87;48.14
70928;SHT31;58587;53.034;18.576;2022-07-06T17:44:17;19.72;49.00
70928;SHT31;58587;53.034;18.576;2022-07-06T17:46:42;19.61;49.41
70928;SHT31;58587;53.034;18.576;2022-07-06T17:49:10;19.63;50.12
70928;SHT31;58587;53.034;18.576;2022-07-06T17:51:37;19.48;50.95
70928;SHT31;58587;53.034;18.576;2022-07-06T17:54:02;19.39;51.45
70928;SHT31;58587;53.034;18.576;2022-07-06T17:56:28;19.22;52.42
70928;SHT31;58587;53.034;18.576;2022-07-06T17:58:56;19.02;53.35
70928;SHT31;58587;53.034;18.576;2022-07-06T18:01:23;18.98;54.17
70928;SHT31;58587;53.034;18.576;2022-07-06T18:03:49;19.02;53.83
70928;SHT31;58587;53.034;18.576;2022-07-06T18:06:14;19.08;54.10
70928;SHT31;58587;53.034;18.576;2022-07-06T18:08:47;18.91;54.91
70928;SHT31;58587;53.034;18.576;2022-07-06T18:11:13;18.88;55.26
70928;SHT31;58587;53.034;18.576;2022-07-06T18:13:39;18.77;55.36
70928;SHT31;58587;53.034;18.576;2022-07-06T18:16:05;18.80;56.02
70928;SHT31;58587;53.034;18.576;2022-07-06T18:18:32;18.65;56.16
70928;SHT31;58587;53.034;18.576;2022-07-06T18:20:57;18.68;56.15
70928;SHT31;58587;53.034;18.576;2022-07-06T18:23:24;18.67;57.01
70928;SHT31;58587;53.034;18.576;2022-07-06T18:25:51;18.67;56.70
70928;SHT31;58587;53.034;18.576;2022-07-06T18:28:17;18.60;57.19
70928;SHT31;58587;53.034;18.576;2022-07-06T18:30:51;18.50;57.43
70928;SHT31;58587;53.034;18.576;2022-07-06T18:33:18;18.50;57.49
70928;SHT31;58587;53.034;18.576;2022-07-06T18:35:43;18.46;57.38
70928;SHT31;58587;53.034;18.576;2022-07-06T18:38:09;18.34;58.01
70928;SHT31;58587;53.034;18.576;2022-07-06T18:40:37;18.37;57.95
70928;SHT31;58587;53.034;18.576;2022-07-06T18:43:03;18.30;57.84
70928;SHT31;58587;53.034;18.576;2022-07-06T18:45:28;18.33;57.43
70928;SHT31;58587;53.034;18.576;2022-07-06T18:47:54;18.16;57.90
70928;SHT31;58587;53.034;18.576;2022-07-06T18:50:20;17.93;58.15
70928;SHT31;58587;53.034;18.576;2022-07-06T18:52:45;17.93;58.81
70928;SHT31;58587;53.034;18.576;2022-07-06T18:55:11;17.89;58.71
70928;SHT31;58587;53.034;18.576;2022-07-06T18:57:36;17.86;58.75
70928;SHT31;58587;53.034;18.576;2022-07-06T19:00:03;17.81;58.54
70928;SHT31;58587;53.034;18.576;2022-07-06T19:02:29;17.64;59.19
70928;SHT31;58587;53.034;18.576;2022-07-06T19:04:55;17.64;58.87
70928;SHT31;58587;53.034;18.576;2022-07-06T19:07:20;17.54;59.20
70928;SHT31;58587;53.034;18.576;2022-07-06T19:09:47;17.39;58.41
70928;SHT31;58587;53.034;18.576;2022-07-06T19:12:12;17.38;58.88
70928;SHT31;58587;53.034;18.576;2022-07-06T19:14:38;17.36;58.74
70928;SHT31;58587;53.034;18.576;2022-07-06T19:17:03;17.28;59.22
70928;SHT31;58587;53.034;18.576;2022-07-06T19:19:29;17.22;59.86
70928;SHT31;58587;53.034;18.576;2022-07-06T19:21:54;17.18;59.60
70928;SHT31;58587;53.034;18.576;2022-07-06T19:24:20;17.04;59.45
70928;SHT31;58587;53.034;18.576;2022-07-06T19:26:46;17.03;59.31
70928;SHT31;58587;53.034;18.576;2022-07-06T19:29:11;16.93;59.90
70928;SHT31;58587;53.034;18.576;2022-07-06T19:31:37;16.87;59.87
70928;SHT31;58587;53.034;18.576;2022-07-06T19:34:03;16.80;60.54
70928;SHT31;58587;53.034;18.576;2022-07-06T19:36:29;16.76;61.44
70928;SHT31;58587;53.034;18.576;2022-07-06T19:38:54;16.67;61.39
70928;SHT31;58587;53.034;18.576;2022-07-06T19:41:20;16.57;61.38
70928;SHT31;58587;53.034;18.576;2022-07-06T19:43:48;16.52;61.28
70928;SHT31;58587;53.034;18.576;2022-07-06T19:46:14;16.38;61.55
70928;SHT31;58587;53.034;18.576;2022-07-06T19:48:39;16.38;62.16
70928;SHT31;58587;53.034;18.576;2022-07-06T19:51:05;16.34;63.47
70928;SHT31;58587;53.034;18.576;2022-07-06T19:53:36;16.29;63.75
70928;SHT31;58587;53.034;18.576;2022-07-06T19:56:02;16.18;64.02
70928;SHT31;58587;53.034;18.576;2022-07-06T19:58:28;16.16;64.29
70928;SHT31;58587;53.034;18.576;2022-07-06T20:00:54;16.10;64.20
70928;SHT31;58587;53.034;18.576;2022-07-06T20:03:23;16.05;63.43
70928;SHT31;58587;53.034;18.576;2022-07-06T20:05:51;15.98;65.05
70928;SHT31;58587;53.034;18.576;2022-07-06T20:08:16;15.94;64.96
70928;SHT31;58587;53.034;18.576;2022-07-06T20:10:42;15.89;65.42
70928;SHT31;58587;53.034;18.576;2022-07-06T20:13:07;15.84;64.92
70928;SHT31;58587;53.034;18.576;2022-07-06T20:15:33;15.81;66.24
70928;SHT31;58587;53.034;18.576;2022-07-06T20:18:02;15.81;66.38
70928;SHT31;58587;53.034;18.576;2022-07-06T20:20:28;15.79;66.52
70928;SHT31;58587;53.034;18.576;2022-07-06T20:22:53;15.71;66.89
70928;SHT31;58587;53.034;18.576;2022-07-06T20:25:19;15.68;67.58
70928;SHT31;58587;53.034;18.576;2022-07-06T20:27:45;15.64;67.65
70928;SHT31;58587;53.034;18.576;2022-07-06T20:30:11;15.59;67.15
70928;SHT31;58587;53.034;18.576;2022-07-06T20:32:37;15.57;67.37
70928;SHT31;58587;53.034;18.576;2022-07-06T20:35:05;15.55;67.16
70928;SHT31;58587;53.034;18.576;2022-07-06T20:37:30;15.55;67.33
70928;SHT31;58587;53.034;18.576;2022-07-06T20:39:56;15.51;68.09
70928;SHT31;58587;53.034;18.576;2022-07-06T20:42:21;15.53;68.13
70928;SHT31;58587;53.034;18.576;2022-07-06T20:44:47;15.54;68.12
70928;SHT31;58587;53.034;18.576;2022-07-06T20:47:14;15.50;67.79
70928;SHT31;58587;53.034;18.576;2022-07-06T20:49:39;15.50;67.17
70928;SHT31;58587;53.034;18.576;2022-07-06T20:52:05;15.53;67.49
70928;SHT31;58587;53.034;18.576;2022-07-06T20:54:30;15.53;67.63
70928;SHT31;58587;53.034;18.576;2022-07-06T20:56:56;15.51;67.43
70928;SHT31;58587;53.034;18.576;2022-07-06T20:59:21;15.53;67.11
70928;SHT31;58587;53.034;18.576;2022-07-06T21:01:46;15.54;67.10
70928;SHT31;58587;53.034;18.576;2022-07-06T21:04:12;15.48;67.07
70928;SHT31;58587;53.034;18.576;2022-07-06T21:06:37;15.47;66.37
70928;SHT31;58587;53.034;18.576;2022-07-06T21:09:04;15.54;67.51
70928;SHT31;58587;53.034;18.576;2022-07-06T21:11:29;15.53;66.78
70928;SHT31;58587;53.034;18.576;2022-07-06T21:13:55;15.53;67.27
70928;SHT31;58587;53.034;18.576;2022-07-06T21:16:20;15.57;66.99
70928;SHT31;58587;53.034;18.576;2022-07-06T21:18:46;15.59;67.28
70928;SHT31;58587;53.034;18.576;2022-07-06T21:21:11;15.62;68.14
70928;SHT31;58587;53.034;18.576;2022-07-06T21:23:37;15.59;68.49
70928;SHT31;58587;53.034;18.576;2022-07-06T21:26:04;15.64;68.47
70928;SHT31;58587;53.034;18.576;2022-07-06T21:28:30;15.65;67.42
70928;SHT31;58587;53.034;18.576;2022-07-06T21:30:55;15.69;68.00
70928;SHT31;58587;53.034;18.576;2022-07-06T21:33:20;15.74;67.39
70928;SHT31;58587;53.034;18.576;2022-07-06T21:35:47;15.68;67.01
70928;SHT31;58587;53.034;18.576;2022-07-06T21:38:13;15.77;67.67
70928;SHT31;58587;53.034;18.576;2022-07-06T21:40:38;15.69;66.98
70928;SHT31;58587;53.034;18.576;2022-07-06T21:43:04;15.69;67.72
70928;SHT31;58587;53.034;18.576;2022-07-06T21:45:29;15.68;66.77
70928;SHT31;58587;53.034;18.576;2022-07-06T21:47:55;15.69;67.10
70928;SHT31;58587;53.034;18.576;2022-07-06T21:50:20;15.72;67.63
70928;SHT31;58587;53.034;18.576;2022-07-06T21:52:45;15.74;67.77
70928;SHT31;58587;53.034;18.576;2022-07-06T21:55:11;15.68;68.41
70928;SHT31;58587;53.034;18.576;2022-07-06T21:57:36;15.67;68.33
70928;SHT31;58587;53.034;18.576;2022-07-06T22:00:04;15.64;68.07
70928;SHT31;58587;53.034;18.576;2022-07-06T22:02:30;15.61;67.67
70928;SHT31;58587;53.034;18.576;2022-07-06T22:04:55;15.59;68.46
70928;SHT31;58587;53.034;18.576;2022-07-06T22:07:21;15.58;68.22
70928;SHT31;58587;53.034;18.576;2022-07-06T22:09:46;15.55;68.01
70928;SHT31;58587;53.034;18.576;2022-07-06T22:12:12;15.53;67.90
70928;SHT31;58587;53.034;18.576;2022-07-06T22:14:37;15.51;68.69
70928;SHT31;58587;53.034;18.576;2022-07-06T22:17:03;15.47;69.05
70928;SHT31;58587;53.034;18.576;2022-07-06T22:19:28;15.38;68.42
70928;SHT31;58587;53.034;18.576;2022-07-06T22:21:54;15.33;69.00
70928;SHT31;58587;53.034;18.576;2022-07-06T22:24:19;15.28;69.24
70928;SHT31;58587;53.034;18.576;2022-07-06T22:26:45;15.27;69.77
70928;SHT31;58587;53.034;18.576;2022-07-06T22:29:10;15.19;70.41
70928;SHT31;58587;53.034;18.576;2022-07-06T22:31:36;15.16;70.07
70928;SHT31;58587;53.034;18.576;2022-07-06T22:34:02;15.10;70.50
70928;SHT31;58587;53.034;18.576;2022-07-06T22:36:27;15.08;70.54
70928;SHT31;58587;53.034;18.576;2022-07-06T22:38:56;15.04;70.67
70928;SHT31;58587;53.034;18.576;2022-07-06T22:41:22;14.99;71.09
70928;SHT31;58587;53.034;18.576;2022-07-06T22:43:49;14.92;71.40
70928;SHT31;58587;53.034;18.576;2022-07-06T22:46:15;14.87;71.63
70928;SHT31;58587;53.034;18.576;2022-07-06T22:48:44;14.86;72.27
70928;SHT31;58587;53.034;18.576;2022-07-06T22:51:10;14.79;72.81
70928;SHT31;58587;53.034;18.576;2022-07-06T22:53:36;14.77;72.60
70928;SHT31;58587;53.034;18.576;2022-07-06T22:56:01;14.79;72.08
70928;SHT31;58587;53.034;18.576;2022-07-06T22:58:27;14.82;72.45
70928;SHT31;58587;53.034;18.576;2022-07-06T23:00:53;14.83;72.78
70928;SHT31;58587;53.034;18.576;2022-07-06T23:03:18;14.83;73.12
70928;SHT31;58587;53.034;18.576;2022-07-06T23:05:46;14.80;72.19
70928;SHT31;58587;53.034;18.576;2022-07-06T23:08:14;14.82;72.38
